Flight Track Log - Related Links

Times and Time Zones

All times are in EDT time to prevent confusion due to time zone crossing. See the SKW5550 flight status page for this flight to view local times or setup timezone preferences in your user account.

Time Position Orientation Groundspeed Altitude Reporting Facility
EDT Latitude Longitude Course Direction KTS MPH feet Rate Location/Type
Mon 09:54:36 AM 44.5069 -109.0514 166° South 157 181 6,000  Level Salt Lake Center
Mon 09:55:00 AM 43.9935 -108.4900 157° South  Level Estimated
Mon 09:55:37 AM 44.4603 -109.0686 195° South 242 278 7,800  Level Salt Lake Center
Mon 09:56:00 AM 43.8920 -108.3885 164° South  Level Estimated
Mon 09:56:38 AM 44.4489 -108.9881 101° East 240 276 10,600  Level Salt Lake Center
Mon 09:57:00 AM 43.7696 -108.3531 168° South  Level FlightAware Approximate
Mon 09:57:39 AM 44.4933 -108.9278 44° Northeast 231 266 12,800  Level Salt Lake Center
Mon 09:58:00 AM 43.6687 -108.2507 164° South  Level Estimated
Mon 09:58:40 AM 44.4506 -108.8250 120° Southeast 293 337 14,200  Level Salt Lake Center
Mon 09:59:00 AM 43.5677 -108.1487 166° South  Level Estimated
Mon 09:59:41 AM 44.3742 -108.7436 143° Southeast 342 394 16,000  Level Salt Lake Center
Mon 10:00:43 AM 44.2969 -108.6561 141° Southeast 354 407 17,700 1,561 Climbing Salt Lake Center
Mon 10:01:44 AM 44.1986 -108.5439 141° Southeast 373 429 19,200 1,525 Climbing Salt Lake Center
Mon 10:02:45 AM 44.1128 -108.4467 141° Southeast 390 449 20,800 1,475 Climbing Salt Lake Center
Mon 10:03:46 AM 44.0247 -108.3489 141° Southeast 401 461 22,200 1,328 Climbing Salt Lake Center
Mon 10:04:47 AM 43.9367 -108.2492 141° Southeast 410 472 23,500 1,230 Climbing Salt Lake Center
Mon 10:05:48 AM 43.8469 -108.1478 141° Southeast 417 480 24,700 1,073 Climbing Salt Lake Center
Mon 10:06:50 AM 43.7556 -108.0461 141° Southeast 422 486 25,700 927 Climbing Salt Lake Center
Mon 10:07:51 AM 43.6617 -107.9422 141° Southeast 432 497 26,600 885 Climbing Salt Lake Center
Mon 10:08:52 AM 43.5664 -107.8361 141° Southeast 440 506 27,500 836 Climbing Salt Lake Center
Mon 10:09:53 AM 43.4694 -107.7297 141° Southeast 446 513 28,300 878 Climbing Salt Lake Center
Mon 10:10:55 AM 43.3514 -107.6006 141° Southeast 455 524 29,300 878 Climbing Salt Lake Center
Mon 10:11:56 AM 43.2536 -107.4950 142° Southeast 450 518 30,100 639 Climbing Salt Lake Center
Mon 10:12:57 AM 43.1550 -107.3864 141° Southeast 454 522 30,600 443 Climbing Salt Lake Center
Mon 10:13:58 AM 43.0531 -107.2767 142° Southeast 465 535 31,000 195 Climbing Salt Lake Center
Mon 10:15:00 AM 42.9492 -107.1650 142° Southeast 475 547 31,000  Level Salt Lake Center
Mon 10:15:54 AM 42.8486 -107.0550 141° Southeast 489 563 31,000  Level Denver Center
Mon 10:16:56 AM 42.7439 -106.9428 142° Southeast 500 575 31,000  Level Denver Center
Mon 10:17:57 AM 42.6194 -106.8119 142° Southeast 507 583 31,000  Level Denver Center
Mon 10:18:59 AM 42.5136 -106.6997 142° Southeast 507 583 31,000  Level Denver Center
Mon 10:20:00 AM 42.3900 -106.5706 142° Southeast 504 580 31,000  Level Denver Center
Mon 10:21:02 AM 42.2847 -106.4608 142° Southeast 502 578 31,000  Level Denver Center
Mon 10:22:03 AM 42.1628 -106.3333 142° Southeast 500 575 31,000  Level Denver Center
Mon 10:23:05 AM 42.0578 -106.2253 143° Southeast 498 573 31,000  Level Denver Center
Mon 10:24:07 AM 41.9547 -106.1194 143° Southeast 494 568 31,000  Level Denver Center
Mon 10:25:08 AM 41.8328 -106.0039 145° Southeast 490 564 31,000  Level Denver Center
Mon 10:26:10 AM 41.7094 -105.9419 159° South 496 571 31,000  Level Denver Center
Mon 10:27:12 AM 41.5653 -105.8775 162° South 491 565 31,000  Level Denver Center
Mon 10:28:13 AM 41.4431 -105.8228 161° South 487 560 31,000  Level Denver Center
Mon 10:29:15 AM 41.2992 -105.7564 161° South 490 564 31,000  Level Denver Center
Mon 10:30:17 AM 41.1772 -105.7031 162° South 486 559 31,000  Level Denver Center
Mon 10:31:19 AM 41.0339 -105.6381 161° South 487 560 31,000  Level Denver Center
Mon 10:32:20 AM 40.9278 -105.5706 154° Southeast 481 554 31,000 -1,707 Level Denver Center
Mon 10:33:22 AM 40.8117 -105.4808 150° Southeast 482 555 27,500 -4,016 Descending Denver Center
Mon 10:34:24 AM 40.6769 -105.3794 150° Southeast 467 537 22,700 -4,210 Descending Denver Center
Mon 10:35:26 AM 40.5756 -105.2992 149° Southeast 433 498 18,800 -3,000 Descending Denver Center
Mon 10:36:28 AM 40.4861 -105.2267 148° Southeast 385 443 16,500 -1,839 Descending Denver Center
Mon 10:37:30 AM 40.4006 -105.1533 147° Southeast 343 395 15,000 -1,415 Descending Denver Center
Mon 10:38:31 AM 40.3578 -105.0597 121° Southeast 318 366 13,600 -976 Descending Denver Center
Mon 10:39:33 AM 40.3517 -104.9553 94° East 290 334 13,000 -816 Descending Denver Center
Mon 10:40:36 AM 40.3394 -104.8528 99° East 270 311 11,900 -1,258 Descending Denver Center
Mon 10:41:37 AM 40.2992 -104.7786 125° Southeast 275 316 10,400 -927 Descending Denver Center
Mon 10:42:39 AM 40.2281 -104.7317 153° Southeast 268 308 10,000 -290 Descending Denver Center
Mon 10:43:41 AM 40.1600 -104.6928 156° South 267 307 9,800 -677 Descending Denver Center
Mon 10:44:43 AM 40.0869 -104.6942 181° South 259 298 8,600 -1,016 Descending Denver Center
Mon 10:45:45 AM 40.0139 -104.6936 180° South 244 281 7,700 -919 Descending Denver Center
Mon 10:46:47 AM 39.9586 -104.6956 182° South 205 236 6,700 -968 Descending Denver Center
Mon 10:47:49 AM 39.9144 -104.6958 180° South 148 170 5,700 -672 Descending Denver Center
Mon 10:48:52 AM 39.8814 -104.6956 180° South 125 144 5,300 -381 Descending Denver Center

Login

Don't have an account? Register now (free) for customized features, flight alerts, and more!